Startpagina
METAR-TAF:

METAR-TAF

Vliegvelden :

Kalispell Glacier Park, Montana, Verenigde Staten

breedte: 48-18-15N, lengte: 114-15-49W, hoogte: 906 m

Actueel weer

Dit bericht is 48 minuten geleden gemaakt, om 17:55 UTC
Weinig wind
Temperatuur -3°C
Vochtigheid 74%
Druk 1026 hPa
Zicht: 16.1 km
Geheel bewolkt op 1400 ft

METAR: KGPI 181755Z 00000KT 10SM OVC014 M03/M07 A3030 RMK AO2 SLP303 T10331067 11033 21094 51005

Tijdstip: 11:43 (18:43 UTC)

Verwachting

Dit bericht is 1 uur en het 17 minuten geleden gemaakt, om 17:26 UTC
Verwachting geldig van 18 om 18 UTC tot 19 om 18 UTC
Wind kt uit het noorden
Zicht: 10 km
Geheel bewolkt op 1600 ft

TAF: KGPI 181726Z 1818/1918 00000KT P6SM OVC016

Waarnemingen en weersverwachtingen van meer dan 4000 vliegvelden (METAR en TAF).

De beschikbare stations zijn de gele en rode punten op de kaart.

Ga met uw muis naar het station om de naam te zien.

Klik dan om waarnemingen en weersverwachtingen te zien.

kaart wijzigen: klik op de groene knoppen met een zwart kruis om in te zoomen, op de groene knop met een streepje om uit te zoomen of op de groene pijlen voor aangrenzende kaarten.


METAR-TAF: